sensor_id;sensor_type;location;lat;lon;timestamp;temperature;humidity
8067;DHT22;4076;48.076;9.118;2023-05-19T00:01:56;10.90;69.50
8067;DHT22;4076;48.076;9.118;2023-05-19T00:04:24;10.90;69.30
8067;DHT22;4076;48.076;9.118;2023-05-19T00:06:50;10.90;69.60
8067;DHT22;4076;48.076;9.118;2023-05-19T00:09:18;10.90;71.00
8067;DHT22;4076;48.076;9.118;2023-05-19T00:11:43;10.80;70.80
8067;DHT22;4076;48.076;9.118;2023-05-19T00:14:10;10.80;71.20
8067;DHT22;4076;48.076;9.118;2023-05-19T00:16:36;10.80;71.60
8067;DHT22;4076;48.076;9.118;2023-05-19T00:19:03;10.70;71.80
8067;DHT22;4076;48.076;9.118;2023-05-19T00:21:30;10.70;72.40
8067;DHT22;4076;48.076;9.118;2023-05-19T00:23:55;10.70;72.30
8067;DHT22;4076;48.076;9.118;2023-05-19T00:26:22;10.70;72.90
8067;DHT22;4076;48.076;9.118;2023-05-19T00:28:48;10.60;73.60
8067;DHT22;4076;48.076;9.118;2023-05-19T00:31:14;10.60;73.00
8067;DHT22;4076;48.076;9.118;2023-05-19T00:33:40;10.60;72.80
8067;DHT22;4076;48.076;9.118;2023-05-19T00:36:06;10.60;73.50
8067;DHT22;4076;48.076;9.118;2023-05-19T00:38:33;10.60;74.60
8067;DHT22;4076;48.076;9.118;2023-05-19T00:40:59;10.50;75.10
8067;DHT22;4076;48.076;9.118;2023-05-19T00:43:25;10.50;75.80
8067;DHT22;4076;48.076;9.118;2023-05-19T00:45:51;10.50;76.60
8067;DHT22;4076;48.076;9.118;2023-05-19T00:48:17;10.40;77.50
8067;DHT22;4076;48.076;9.118;2023-05-19T00:50:42;10.40;76.70
8067;DHT22;4076;48.076;9.118;2023-05-19T00:53:08;10.40;77.00
8067;DHT22;4076;48.076;9.118;2023-05-19T00:55:36;10.30;78.80
8067;DHT22;4076;48.076;9.118;2023-05-19T00:58:03;10.30;79.00
8067;DHT22;4076;48.076;9.118;2023-05-19T01:00:30;10.20;78.80
8067;DHT22;4076;48.076;9.118;2023-05-19T01:02:55;10.20;79.80
8067;DHT22;4076;48.076;9.118;2023-05-19T01:05:21;10.20;80.60
8067;DHT22;4076;48.076;9.118;2023-05-19T01:07:47;10.10;81.50
8067;DHT22;4076;48.076;9.118;2023-05-19T01:10:18;10.10;81.70
8067;DHT22;4076;48.076;9.118;2023-05-19T01:12:44;10.10;83.70
8067;DHT22;4076;48.076;9.118;2023-05-19T01:15:10;10.00;84.70
8067;DHT22;4076;48.076;9.118;2023-05-19T01:17:58;10.00;85.40
8067;DHT22;4076;48.076;9.118;2023-05-19T01:20:38;10.00;86.60
8067;DHT22;4076;48.076;9.118;2023-05-19T01:23:36;9.90;89.40
8067;DHT22;4076;48.076;9.118;2023-05-19T01:26:28;9.90;90.00
8067;DHT22;4076;48.076;9.118;2023-05-19T01:32:03;9.90;91.00
8067;DHT22;4076;48.076;9.118;2023-05-19T01:34:31;9.80;91.70
8067;DHT22;4076;48.076;9.118;2023-05-19T01:36:59;9.80;92.70
8067;DHT22;4076;48.076;9.118;2023-05-19T01:39:26;9.70;93.30
8067;DHT22;4076;48.076;9.118;2023-05-19T01:41:52;9.70;92.80
8067;DHT22;4076;48.076;9.118;2023-05-19T01:44:19;9.70;93.30
8067;DHT22;4076;48.076;9.118;2023-05-19T01:46:47;9.70;94.10
8067;DHT22;4076;48.076;9.118;2023-05-19T01:49:13;9.70;94.60
8067;DHT22;4076;48.076;9.118;2023-05-19T01:51:39;9.80;95.30
8067;DHT22;4076;48.076;9.118;2023-05-19T01:54:04;9.80;96.30
8067;DHT22;4076;48.076;9.118;2023-05-19T01:59:33;9.80;97.30
8067;DHT22;4076;48.076;9.118;2023-05-19T02:02:07;9.80;97.00
8067;DHT22;4076;48.076;9.118;2023-05-19T02:04:43;9.80;97.30
8067;DHT22;4076;48.076;9.118;2023-05-19T02:07:20;9.80;97.60
8067;DHT22;4076;48.076;9.118;2023-05-19T02:10:08;9.80;97.70
8067;DHT22;4076;48.076;9.118;2023-05-19T02:12:36;9.80;98.10
8067;DHT22;4076;48.076;9.118;2023-05-19T02:17:29;9.70;99.40
8067;DHT22;4076;48.076;9.118;2023-05-19T02:19:57;9.80;98.20
8067;DHT22;4076;48.076;9.118;2023-05-19T02:22:23;9.80;98.40
8067;DHT22;4076;48.076;9.118;2023-05-19T02:24:49;9.70;98.50
8067;DHT22;4076;48.076;9.118;2023-05-19T02:27:16;9.80;98.60
8067;DHT22;4076;48.076;9.118;2023-05-19T02:29:41;9.70;99.40
8067;DHT22;4076;48.076;9.118;2023-05-19T02:32:07;9.70;99.60
8067;DHT22;4076;48.076;9.118;2023-05-19T02:34:32;9.70;99.90
8067;DHT22;4076;48.076;9.118;2023-05-19T02:36:58;9.60;99.90
8067;DHT22;4076;48.076;9.118;2023-05-19T02:39:23;9.60;99.90
8067;DHT22;4076;48.076;9.118;2023-05-19T02:41:49;9.60;99.90
8067;DHT22;4076;48.076;9.118;2023-05-19T02:44:14;9.60;99.90
8067;DHT22;4076;48.076;9.118;2023-05-19T02:46:40;9.60;99.90
8067;DHT22;4076;48.076;9.118;2023-05-19T02:49:06;9.50;99.90
8067;DHT22;4076;48.076;9.118;2023-05-19T02:51:31;9.60;99.90
8067;DHT22;4076;48.076;9.118;2023-05-19T02:53:57;9.60;99.90
8067;DHT22;4076;48.076;9.118;2023-05-19T02:56:22;9.50;99.90
8067;DHT22;4076;48.076;9.118;2023-05-19T02:58:48;9.50;99.90
8067;DHT22;4076;48.076;9.118;2023-05-19T03:01:14;9.40;99.90
8067;DHT22;4076;48.076;9.118;2023-05-19T03:03:40;9.40;99.90
8067;DHT22;4076;48.076;9.118;2023-05-19T03:06:05;9.40;99.90
8067;DHT22;4076;48.076;9.118;2023-05-19T03:08:33;9.40;99.90
8067;DHT22;4076;48.076;9.118;2023-05-19T03:10:59;9.40;99.90
8067;DHT22;4076;48.076;9.118;2023-05-19T03:13:25;9.40;99.90
8067;DHT22;4076;48.076;9.118;2023-05-19T03:15:50;9.30;99.90
8067;DHT22;4076;48.076;9.118;2023-05-19T03:18:15;9.30;99.90
8067;DHT22;4076;48.076;9.118;2023-05-19T03:20:41;9.30;99.90
8067;DHT22;4076;48.076;9.118;2023-05-19T03:23:09;9.30;99.90
8067;DHT22;4076;48.076;9.118;2023-05-19T03:25:34;9.20;99.90
8067;DHT22;4076;48.076;9.118;2023-05-19T03:28:00;9.20;99.90
8067;DHT22;4076;48.076;9.118;2023-05-19T03:30:26;9.20;99.90
8067;DHT22;4076;48.076;9.118;2023-05-19T03:32:51;9.20;99.90
8067;DHT22;4076;48.076;9.118;2023-05-19T03:35:17;9.20;99.90
8067;DHT22;4076;48.076;9.118;2023-05-19T03:37:43;9.10;99.90
8067;DHT22;4076;48.076;9.118;2023-05-19T03:40:08;9.10;99.90
8067;DHT22;4076;48.076;9.118;2023-05-19T03:42:34;9.10;99.90
8067;DHT22;4076;48.076;9.118;2023-05-19T03:45:00;9.00;99.90
8067;DHT22;4076;48.076;9.118;2023-05-19T03:47:26;9.00;99.90
8067;DHT22;4076;48.076;9.118;2023-05-19T03:49:51;9.00;99.90
8067;DHT22;4076;48.076;9.118;2023-05-19T03:52:17;9.00;99.90
8067;DHT22;4076;48.076;9.118;2023-05-19T03:54:42;9.00;99.90
8067;DHT22;4076;48.076;9.118;2023-05-19T03:57:09;9.10;99.90
8067;DHT22;4076;48.076;9.118;2023-05-19T03:59:35;9.10;99.90
8067;DHT22;4076;48.076;9.118;2023-05-19T04:02:01;9.10;99.90
8067;DHT22;4076;48.076;9.118;2023-05-19T04:04:27;9.00;99.90
8067;DHT22;4076;48.076;9.118;2023-05-19T04:06:53;9.00;99.90
8067;DHT22;4076;48.076;9.118;2023-05-19T04:09:20;9.00;99.90
8067;DHT22;4076;48.076;9.118;2023-05-19T04:11:48;9.00;99.90
8067;DHT22;4076;48.076;9.118;2023-05-19T04:14:13;9.00;99.90
8067;DHT22;4076;48.076;9.118;2023-05-19T04:16:40;9.00;99.90
8067;DHT22;4076;48.076;9.118;2023-05-19T04:19:06;9.00;99.90
8067;DHT22;4076;48.076;9.118;2023-05-19T04:21:31;9.00;99.90
8067;DHT22;4076;48.076;9.118;2023-05-19T04:23:57;9.10;99.90
8067;DHT22;4076;48.076;9.118;2023-05-19T04:26:25;9.10;99.90
8067;DHT22;4076;48.076;9.118;2023-05-19T04:28:51;9.10;99.90
8067;DHT22;4076;48.076;9.118;2023-05-19T04:31:18;9.20;99.90
8067;DHT22;4076;48.076;9.118;2023-05-19T04:33:46;9.20;99.90
8067;DHT22;4076;48.076;9.118;2023-05-19T04:36:12;9.20;99.90
8067;DHT22;4076;48.076;9.118;2023-05-19T04:38:38;9.20;99.90
8067;DHT22;4076;48.076;9.118;2023-05-19T04:41:07;9.30;99.90
8067;DHT22;4076;48.076;9.118;2023-05-19T04:43:36;9.30;99.90
8067;DHT22;4076;48.076;9.118;2023-05-19T04:46:09;9.30;99.90
8067;DHT22;4076;48.076;9.118;2023-05-19T04:48:37;9.40;99.90
8067;DHT22;4076;48.076;9.118;2023-05-19T04:51:04;9.40;99.90
8067;DHT22;4076;48.076;9.118;2023-05-19T04:53:30;9.40;99.90
8067;DHT22;4076;48.076;9.118;2023-05-19T04:55:56;9.50;99.90
8067;DHT22;4076;48.076;9.118;2023-05-19T04:58:22;9.60;99.90
8067;DHT22;4076;48.076;9.118;2023-05-19T05:00:51;9.70;99.90
8067;DHT22;4076;48.076;9.118;2023-05-19T05:03:17;9.70;99.90
8067;DHT22;4076;48.076;9.118;2023-05-19T05:05:43;9.90;99.90
8067;DHT22;4076;48.076;9.118;2023-05-19T05:08:09;10.00;99.90
8067;DHT22;4076;48.076;9.118;2023-05-19T05:10:35;10.10;99.90
8067;DHT22;4076;48.076;9.118;2023-05-19T05:13:01;10.20;99.90
8067;DHT22;4076;48.076;9.118;2023-05-19T05:15:26;10.30;99.90
8067;DHT22;4076;48.076;9.118;2023-05-19T05:17:54;10.50;99.90
8067;DHT22;4076;48.076;9.118;2023-05-19T05:20:20;10.70;99.90
8067;DHT22;4076;48.076;9.118;2023-05-19T05:22:46;10.90;99.90
8067;DHT22;4076;48.076;9.118;2023-05-19T05:25:12;11.10;99.90
8067;DHT22;4076;48.076;9.118;2023-05-19T05:27:38;11.30;99.90
8067;DHT22;4076;48.076;9.118;2023-05-19T05:30:04;11.40;99.90
8067;DHT22;4076;48.076;9.118;2023-05-19T05:32:30;11.40;99.90
8067;DHT22;4076;48.076;9.118;2023-05-19T05:34:55;11.60;99.90
8067;DHT22;4076;48.076;9.118;2023-05-19T05:37:21;11.60;99.90
8067;DHT22;4076;48.076;9.118;2023-05-19T05:39:47;11.80;99.90
8067;DHT22;4076;48.076;9.118;2023-05-19T05:42:12;12.00;99.90
8067;DHT22;4076;48.076;9.118;2023-05-19T05:44:38;12.00;99.90
8067;DHT22;4076;48.076;9.118;2023-05-19T05:47:03;12.00;99.90
8067;DHT22;4076;48.076;9.118;2023-05-19T05:49:29;12.10;99.90
8067;DHT22;4076;48.076;9.118;2023-05-19T05:51:55;12.10;99.90
8067;DHT22;4076;48.076;9.118;2023-05-19T05:54:21;12.20;99.80
8067;DHT22;4076;48.076;9.118;2023-05-19T05:56:47;12.20;99.70
8067;DHT22;4076;48.076;9.118;2023-05-19T05:59:14;12.20;98.10
8067;DHT22;4076;48.076;9.118;2023-05-19T06:01:40;12.20;97.60
8067;DHT22;4076;48.076;9.118;2023-05-19T06:04:06;12.10;98.30
8067;DHT22;4076;48.076;9.118;2023-05-19T06:06:32;12.10;98.80
8067;DHT22;4076;48.076;9.118;2023-05-19T06:08:57;12.10;98.80
8067;DHT22;4076;48.076;9.118;2023-05-19T06:11:23;12.10;98.90
8067;DHT22;4076;48.076;9.118;2023-05-19T06:13:49;12.20;98.20
8067;DHT22;4076;48.076;9.118;2023-05-19T06:16:15;12.20;97.00
8067;DHT22;4076;48.076;9.118;2023-05-19T06:18:40;12.20;96.30
8067;DHT22;4076;48.076;9.118;2023-05-19T06:21:06;12.20;95.70
8067;DHT22;4076;48.076;9.118;2023-05-19T06:23:34;12.20;94.80
8067;DHT22;4076;48.076;9.118;2023-05-19T06:26:00;12.20;94.30
8067;DHT22;4076;48.076;9.118;2023-05-19T06:28:26;12.10;94.20
8067;DHT22;4076;48.076;9.118;2023-05-19T06:30:51;12.00;93.80
8067;DHT22;4076;48.076;9.118;2023-05-19T06:33:17;12.00;94.80
8067;DHT22;4076;48.076;9.118;2023-05-19T06:35:42;11.90;95.40
8067;DHT22;4076;48.076;9.118;2023-05-19T06:38:08;11.90;94.60
8067;DHT22;4076;48.076;9.118;2023-05-19T06:40:35;11.80;94.60
8067;DHT22;4076;48.076;9.118;2023-05-19T06:43:01;11.80;95.40
8067;DHT22;4076;48.076;9.118;2023-05-19T06:45:27;11.90;95.80
8067;DHT22;4076;48.076;9.118;2023-05-19T06:47:52;11.80;96.10
8067;DHT22;4076;48.076;9.118;2023-05-19T06:50:18;11.90;95.50
8067;DHT22;4076;48.076;9.118;2023-05-19T06:52:44;12.00;96.10
8067;DHT22;4076;48.076;9.118;2023-05-19T06:55:11;12.00;95.50
8067;DHT22;4076;48.076;9.118;2023-05-19T06:57:37;12.00;95.20
8067;DHT22;4076;48.076;9.118;2023-05-19T07:00:03;12.10;95.60
8067;DHT22;4076;48.076;9.118;2023-05-19T07:02:29;12.10;95.20
8067;DHT22;4076;48.076;9.118;2023-05-19T07:04:54;12.10;95.00
8067;DHT22;4076;48.076;9.118;2023-05-19T07:07:21;12.20;95.50
8067;DHT22;4076;48.076;9.118;2023-05-19T07:09:47;12.20;95.70
8067;DHT22;4076;48.076;9.118;2023-05-19T07:12:12;12.40;94.60
8067;DHT22;4076;48.076;9.118;2023-05-19T07:14:38;12.40;93.80
8067;DHT22;4076;48.076;9.118;2023-05-19T07:17:03;12.50;93.30
8067;DHT22;4076;48.076;9.118;2023-05-19T07:19:29;12.50;94.10
8067;DHT22;4076;48.076;9.118;2023-05-19T07:21:55;12.70;93.70
8067;DHT22;4076;48.076;9.118;2023-05-19T07:24:21;12.90;93.80
8067;DHT22;4076;48.076;9.118;2023-05-19T07:26:47;13.20;93.60
8067;DHT22;4076;48.076;9.118;2023-05-19T07:29:12;13.30;91.90
8067;DHT22;4076;48.076;9.118;2023-05-19T07:31:38;13.30;91.50
8067;DHT22;4076;48.076;9.118;2023-05-19T07:34:03;13.40;91.90
8067;DHT22;4076;48.076;9.118;2023-05-19T07:36:29;13.40;90.30
8067;DHT22;4076;48.076;9.118;2023-05-19T07:38:55;13.30;90.20
8067;DHT22;4076;48.076;9.118;2023-05-19T07:41:21;13.20;90.50
8067;DHT22;4076;48.076;9.118;2023-05-19T07:43:47;13.30;89.70
8067;DHT22;4076;48.076;9.118;2023-05-19T07:46:13;13.20;90.50
8067;DHT22;4076;48.076;9.118;2023-05-19T07:48:38;13.20;90.50
8067;DHT22;4076;48.076;9.118;2023-05-19T07:51:04;13.30;90.30
8067;DHT22;4076;48.076;9.118;2023-05-19T07:53:29;13.20;91.10
8067;DHT22;4076;48.076;9.118;2023-05-19T07:55:55;13.30;91.50
8067;DHT22;4076;48.076;9.118;2023-05-19T07:58:21;13.40;91.10
8067;DHT22;4076;48.076;9.118;2023-05-19T08:00:47;13.40;90.80
8067;DHT22;4076;48.076;9.118;2023-05-19T08:03:12;13.50;91.20
8067;DHT22;4076;48.076;9.118;2023-05-19T08:05:41;13.70;91.00
8067;DHT22;4076;48.076;9.118;2023-05-19T08:08:07;13.90;90.40
8067;DHT22;4076;48.076;9.118;2023-05-19T08:10:32;13.90;90.00
8067;DHT22;4076;48.076;9.118;2023-05-19T08:12:58;13.70;87.00
8067;DHT22;4076;48.076;9.118;2023-05-19T08:15:23;13.60;87.00
8067;DHT22;4076;48.076;9.118;2023-05-19T08:17:49;13.40;87.70
8067;DHT22;4076;48.076;9.118;2023-05-19T08:20:15;13.40;88.20
8067;DHT22;4076;48.076;9.118;2023-05-19T08:22:41;13.50;88.50
8067;DHT22;4076;48.076;9.118;2023-05-19T08:25:07;13.80;89.40
8067;DHT22;4076;48.076;9.118;2023-05-19T08:27:33;14.00;86.90
8067;DHT22;4076;48.076;9.118;2023-05-19T08:29:59;14.00;86.50
8067;DHT22;4076;48.076;9.118;2023-05-19T08:32:24;14.20;86.90
8067;DHT22;4076;48.076;9.118;2023-05-19T08:34:50;14.60;83.10
8067;DHT22;4076;48.076;9.118;2023-05-19T08:37:15;14.80;81.50
8067;DHT22;4076;48.076;9.118;2023-05-19T08:39:41;14.80;83.00
8067;DHT22;4076;48.076;9.118;2023-05-19T08:42:07;15.20;81.90
8067;DHT22;4076;48.076;9.118;2023-05-19T08:44:36;15.60;80.50
8067;DHT22;4076;48.076;9.118;2023-05-19T08:47:04;16.30;76.00
8067;DHT22;4076;48.076;9.118;2023-05-19T08:49:34;17.00;72.80
8067;DHT22;4076;48.076;9.118;2023-05-19T08:54:54;17.00;66.70
8067;DHT22;4076;48.076;9.118;2023-05-19T08:57:25;17.30;67.10
8067;DHT22;4076;48.076;9.118;2023-05-19T08:59:53;17.30;65.20
8067;DHT22;4076;48.076;9.118;2023-05-19T09:02:19;17.20;65.00
8067;DHT22;4076;48.076;9.118;2023-05-19T09:04:45;17.30;64.60
8067;DHT22;4076;48.076;9.118;2023-05-19T09:07:15;17.50;64.00
8067;DHT22;4076;48.076;9.118;2023-05-19T09:09:41;18.10;62.60
8067;DHT22;4076;48.076;9.118;2023-05-19T09:12:09;19.30;60.80
8067;DHT22;4076;48.076;9.118;2023-05-19T09:14:36;20.30;57.70
8067;DHT22;4076;48.076;9.118;2023-05-19T09:17:02;20.80;54.10
8067;DHT22;4076;48.076;9.118;2023-05-19T09:19:28;22.00;55.80
8067;DHT22;4076;48.076;9.118;2023-05-19T09:21:57;24.00;49.70
8067;DHT22;4076;48.076;9.118;2023-05-19T09:24:27;24.60;45.50
8067;DHT22;4076;48.076;9.118;2023-05-19T09:26:54;24.50;44.90
8067;DHT22;4076;48.076;9.118;2023-05-19T09:29:21;25.00;45.00
8067;DHT22;4076;48.076;9.118;2023-05-19T09:31:56;24.60;43.30
8067;DHT22;4076;48.076;9.118;2023-05-19T09:34:25;23.10;43.10
8067;DHT22;4076;48.076;9.118;2023-05-19T09:36:52;21.50;44.40
8067;DHT22;4076;48.076;9.118;2023-05-19T09:39:19;20.20;46.70
8067;DHT22;4076;48.076;9.118;2023-05-19T09:41:46;19.20;47.80
8067;DHT22;4076;48.076;9.118;2023-05-19T09:44:33;18.60;48.90
8067;DHT22;4076;48.076;9.118;2023-05-19T09:46:59;18.00;50.40
8067;DHT22;4076;48.076;9.118;2023-05-19T09:49:26;17.80;50.70
8067;DHT22;4076;48.076;9.118;2023-05-19T09:52:01;17.90;52.70
8067;DHT22;4076;48.076;9.118;2023-05-19T09:54:27;18.20;52.40
8067;DHT22;4076;48.076;9.118;2023-05-19T09:59:23;18.50;51.30
8067;DHT22;4076;48.076;9.118;2023-05-19T10:01:53;18.30;51.40
8067;DHT22;4076;48.076;9.118;2023-05-19T10:04:19;18.60;51.90
8067;DHT22;4076;48.076;9.118;2023-05-19T10:06:48;18.70;51.10
8067;DHT22;4076;48.076;9.118;2023-05-19T10:09:25;18.60;50.40
8067;DHT22;4076;48.076;9.118;2023-05-19T10:11:55;18.50;51.90
8067;DHT22;4076;48.076;9.118;2023-05-19T10:14:22;18.50;51.30
8067;DHT22;4076;48.076;9.118;2023-05-19T10:16:53;18.50;52.20
8067;DHT22;4076;48.076;9.118;2023-05-19T10:19:20;18.70;51.00
8067;DHT22;4076;48.076;9.118;2023-05-19T10:21:47;18.80;51.20
8067;DHT22;4076;48.076;9.118;2023-05-19T10:24:13;18.80;50.50
8067;DHT22;4076;48.076;9.118;2023-05-19T10:26:57;18.60;50.60
8067;DHT22;4076;48.076;9.118;2023-05-19T10:29:28;18.30;50.70
8067;DHT22;4076;48.076;9.118;2023-05-19T10:31:59;18.00;51.40
8067;DHT22;4076;48.076;9.118;2023-05-19T10:34:47;17.70;51.70
8067;DHT22;4076;48.076;9.118;2023-05-19T10:37:45;17.50;52.10
8067;DHT22;4076;48.076;9.118;2023-05-19T10:40:19;17.30;52.50
8067;DHT22;4076;48.076;9.118;2023-05-19T10:43:37;17.20;53.30
8067;DHT22;4076;48.076;9.118;2023-05-19T10:45:44;17.00;53.30
8067;DHT22;4076;48.076;9.118;2023-05-19T10:48:15;16.80;53.10
8067;DHT22;4076;48.076;9.118;2023-05-19T10:50:45;16.80;53.80
8067;DHT22;4076;48.076;9.118;2023-05-19T10:53:17;16.70;53.10
8067;DHT22;4076;48.076;9.118;2023-05-19T10:55:44;16.70;53.10
8067;DHT22;4076;48.076;9.118;2023-05-19T10:58:13;16.70;53.70
8067;DHT22;4076;48.076;9.118;2023-05-19T11:00:38;16.60;53.40
8067;DHT22;4076;48.076;9.118;2023-05-19T11:03:16;16.50;53.90
8067;DHT22;4076;48.076;9.118;2023-05-19T11:05:43;16.50;53.50
8067;DHT22;4076;48.076;9.118;2023-05-19T11:08:10;16.40;54.60
8067;DHT22;4076;48.076;9.118;2023-05-19T11:10:37;16.20;54.60
8067;DHT22;4076;48.076;9.118;2023-05-19T11:13:05;15.90;55.60
8067;DHT22;4076;48.076;9.118;2023-05-19T11:15:34;15.70;55.70
8067;DHT22;4076;48.076;9.118;2023-05-19T11:18:01;15.70;55.10
8067;DHT22;4076;48.076;9.118;2023-05-19T11:20:29;15.60;55.30
8067;DHT22;4076;48.076;9.118;2023-05-19T11:23:09;15.60;55.90
8067;DHT22;4076;48.076;9.118;2023-05-19T11:25:49;15.50;56.30
8067;DHT22;4076;48.076;9.118;2023-05-19T11:28:20;15.50;56.30
8067;DHT22;4076;48.076;9.118;2023-05-19T11:30:52;15.70;56.80
8067;DHT22;4076;48.076;9.118;2023-05-19T11:33:19;15.80;56.60
8067;DHT22;4076;48.076;9.118;2023-05-19T11:35:46;15.70;56.00
8067;DHT22;4076;48.076;9.118;2023-05-19T11:38:13;15.70;56.30
8067;DHT22;4076;48.076;9.118;2023-05-19T11:40:41;15.70;56.80
8067;DHT22;4076;48.076;9.118;2023-05-19T11:43:07;15.70;55.60
8067;DHT22;4076;48.076;9.118;2023-05-19T11:45:33;15.70;55.60
8067;DHT22;4076;48.076;9.118;2023-05-19T11:47:59;15.80;55.50
8067;DHT22;4076;48.076;9.118;2023-05-19T11:50:25;15.80;56.10
8067;DHT22;4076;48.076;9.118;2023-05-19T11:52:51;15.90;56.00
8067;DHT22;4076;48.076;9.118;2023-05-19T11:55:18;16.00;56.70
8067;DHT22;4076;48.076;9.118;2023-05-19T11:57:59;16.20;56.60
8067;DHT22;4076;48.076;9.118;2023-05-19T12:00:25;16.00;56.20
8067;DHT22;4076;48.076;9.118;2023-05-19T12:02:51;15.80;55.90
8067;DHT22;4076;48.076;9.118;2023-05-19T12:05:22;15.60;56.30
8067;DHT22;4076;48.076;9.118;2023-05-19T12:07:49;15.40;56.40
8067;DHT22;4076;48.076;9.118;2023-05-19T12:10:25;15.20;57.60
8067;DHT22;4076;48.076;9.118;2023-05-19T12:12:51;15.00;57.80
8067;DHT22;4076;48.076;9.118;2023-05-19T12:15:18;14.80;58.30
8067;DHT22;4076;48.076;9.118;2023-05-19T12:17:58;14.60;58.90
8067;DHT22;4076;48.076;9.118;2023-05-19T12:20:25;14.50;59.10
8067;DHT22;4076;48.076;9.118;2023-05-19T12:22:51;14.50;60.00
8067;DHT22;4076;48.076;9.118;2023-05-19T12:25:17;14.50;59.60
8067;DHT22;4076;48.076;9.118;2023-05-19T12:27:43;14.50;59.50
8067;DHT22;4076;48.076;9.118;2023-05-19T12:30:10;14.50;60.80
8067;DHT22;4076;48.076;9.118;2023-05-19T12:32:37;14.40;60.40
8067;DHT22;4076;48.076;9.118;2023-05-19T12:35:04;14.40;61.40
8067;DHT22;4076;48.076;9.118;2023-05-19T12:37:31;14.60;62.00
8067;DHT22;4076;48.076;9.118;2023-05-19T12:39:58;14.60;62.20
8067;DHT22;4076;48.076;9.118;2023-05-19T12:42:26;14.80;63.20
8067;DHT22;4076;48.076;9.118;2023-05-19T12:44:59;14.90;62.00
8067;DHT22;4076;48.076;9.118;2023-05-19T12:47:34;15.10;61.50
8067;DHT22;4076;48.076;9.118;2023-05-19T12:50:02;15.00;59.90
8067;DHT22;4076;48.076;9.118;2023-05-19T12:52:29;14.90;60.50
8067;DHT22;4076;48.076;9.118;2023-05-19T12:55:02;14.80;60.20
8067;DHT22;4076;48.076;9.118;2023-05-19T12:57:38;14.70;60.20
8067;DHT22;4076;48.076;9.118;2023-05-19T13:00:07;14.80;60.30
8067;DHT22;4076;48.076;9.118;2023-05-19T13:03:03;14.80;60.30
8067;DHT22;4076;48.076;9.118;2023-05-19T13:05:33;14.60;60.60
8067;DHT22;4076;48.076;9.118;2023-05-19T13:08:03;14.60;61.40
8067;DHT22;4076;48.076;9.118;2023-05-19T13:10:29;14.60;61.60
8067;DHT22;4076;48.076;9.118;2023-05-19T13:12:56;14.60;61.00
8067;DHT22;4076;48.076;9.118;2023-05-19T13:15:26;14.40;62.90
8067;DHT22;4076;48.076;9.118;2023-05-19T13:17:53;14.40;62.70
8067;DHT22;4076;48.076;9.118;2023-05-19T13:20:20;14.40;61.60
8067;DHT22;4076;48.076;9.118;2023-05-19T13:22:46;14.40;61.10
8067;DHT22;4076;48.076;9.118;2023-05-19T13:25:12;14.30;62.30
8067;DHT22;4076;48.076;9.118;2023-05-19T13:27:38;14.20;62.50
8067;DHT22;4076;48.076;9.118;2023-05-19T13:30:04;14.10;62.80
8067;DHT22;4076;48.076;9.118;2023-05-19T13:32:30;14.00;63.00
8067;DHT22;4076;48.076;9.118;2023-05-19T13:34:56;14.00;63.10
8067;DHT22;4076;48.076;9.118;2023-05-19T13:37:22;14.00;64.50
8067;DHT22;4076;48.076;9.118;2023-05-19T13:39:47;14.00;64.40
8067;DHT22;4076;48.076;9.118;2023-05-19T13:42:13;14.10;65.20
8067;DHT22;4076;48.076;9.118;2023-05-19T13:44:38;14.10;64.60
8067;DHT22;4076;48.076;9.118;2023-05-19T13:47:04;14.20;64.00
8067;DHT22;4076;48.076;9.118;2023-05-19T13:49:29;14.20;63.80
8067;DHT22;4076;48.076;9.118;2023-05-19T13:51:56;14.30;65.00
8067;DHT22;4076;48.076;9.118;2023-05-19T13:54:24;14.40;65.20
8067;DHT22;4076;48.076;9.118;2023-05-19T13:56:50;14.50;63.90
8067;DHT22;4076;48.076;9.118;2023-05-19T13:59:16;14.60;62.50
8067;DHT22;4076;48.076;9.118;2023-05-19T14:01:42;14.60;64.40
8067;DHT22;4076;48.076;9.118;2023-05-19T14:04:08;14.60;64.20
8067;DHT22;4076;48.076;9.118;2023-05-19T14:06:34;14.70;64.50
8067;DHT22;4076;48.076;9.118;2023-05-19T14:09:01;14.80;63.80
8067;DHT22;4076;48.076;9.118;2023-05-19T14:11:26;14.80;63.70
8067;DHT22;4076;48.076;9.118;2023-05-19T14:13:52;14.80;63.40
8067;DHT22;4076;48.076;9.118;2023-05-19T14:16:17;14.80;63.40
8067;DHT22;4076;48.076;9.118;2023-05-19T14:18:44;14.80;61.80
8067;DHT22;4076;48.076;9.118;2023-05-19T14:21:10;14.70;61.40
8067;DHT22;4076;48.076;9.118;2023-05-19T14:23:35;14.70;61.60
8067;DHT22;4076;48.076;9.118;2023-05-19T14:26:01;14.60;62.10
8067;DHT22;4076;48.076;9.118;2023-05-19T14:28:26;14.50;62.10
8067;DHT22;4076;48.076;9.118;2023-05-19T14:30:52;14.60;61.20
8067;DHT22;4076;48.076;9.118;2023-05-19T14:33:17;14.40;61.60
8067;DHT22;4076;48.076;9.118;2023-05-19T14:35:46;14.30;61.90
8067;DHT22;4076;48.076;9.118;2023-05-19T14:38:12;14.30;62.00
8067;DHT22;4076;48.076;9.118;2023-05-19T14:40:38;14.10;62.60
8067;DHT22;4076;48.076;9.118;2023-05-19T14:43:06;14.00;62.30
8067;DHT22;4076;48.076;9.118;2023-05-19T14:45:31;13.90;64.40
8067;DHT22;4076;48.076;9.118;2023-05-19T14:47:57;13.80;64.30
8067;DHT22;4076;48.076;9.118;2023-05-19T14:50:23;13.80;63.80
8067;DHT22;4076;48.076;9.118;2023-05-19T14:52:48;13.70;65.00
8067;DHT22;4076;48.076;9.118;2023-05-19T14:55:14;13.70;64.70
8067;DHT22;4076;48.076;9.118;2023-05-19T14:57:40;13.60;65.00
8067;DHT22;4076;48.076;9.118;2023-05-19T15:00:06;13.60;65.80
8067;DHT22;4076;48.076;9.118;2023-05-19T15:02:34;13.60;67.20
8067;DHT22;4076;48.076;9.118;2023-05-19T15:05:00;13.60;67.20
8067;DHT22;4076;48.076;9.118;2023-05-19T15:07:25;13.70;66.60
8067;DHT22;4076;48.076;9.118;2023-05-19T15:09:51;13.60;66.90
8067;DHT22;4076;48.076;9.118;2023-05-19T15:12:17;13.70;66.20
8067;DHT22;4076;48.076;9.118;2023-05-19T15:14:43;13.70;66.60
8067;DHT22;4076;48.076;9.118;2023-05-19T15:17:08;13.80;66.60
8067;DHT22;4076;48.076;9.118;2023-05-19T15:19:34;13.80;67.00
8067;DHT22;4076;48.076;9.118;2023-05-19T15:21:59;13.80;66.60
8067;DHT22;4076;48.076;9.118;2023-05-19T15:24:25;13.80;66.60
8067;DHT22;4076;48.076;9.118;2023-05-19T15:26:51;13.90;66.50
8067;DHT22;4076;48.076;9.118;2023-05-19T15:29:16;13.90;67.30
8067;DHT22;4076;48.076;9.118;2023-05-19T15:31:42;13.90;67.20
8067;DHT22;4076;48.076;9.118;2023-05-19T15:34:07;13.90;66.70
8067;DHT22;4076;48.076;9.118;2023-05-19T15:36:33;13.80;66.70
8067;DHT22;4076;48.076;9.118;2023-05-19T15:38:59;13.80;66.40
8067;DHT22;4076;48.076;9.118;2023-05-19T15:41:24;13.70;66.80
8067;DHT22;4076;48.076;9.118;2023-05-19T15:43:50;13.70;65.60
8067;DHT22;4076;48.076;9.118;2023-05-19T15:46:15;13.60;66.00
8067;DHT22;4076;48.076;9.118;2023-05-19T15:48:43;13.50;66.40
8067;DHT22;4076;48.076;9.118;2023-05-19T15:51:08;13.50;67.00
8067;DHT22;4076;48.076;9.118;2023-05-19T15:53:36;13.60;67.70
8067;DHT22;4076;48.076;9.118;2023-05-19T15:56:01;13.70;67.30
8067;DHT22;4076;48.076;9.118;2023-05-19T15:58:27;13.70;66.90
8067;DHT22;4076;48.076;9.118;2023-05-19T16:00:52;13.70;67.60
8067;DHT22;4076;48.076;9.118;2023-05-19T16:03:18;13.70;67.80
8067;DHT22;4076;48.076;9.118;2023-05-19T16:05:43;13.80;67.10
8067;DHT22;4076;48.076;9.118;2023-05-19T16:08:09;13.80;67.30
8067;DHT22;4076;48.076;9.118;2023-05-19T16:10:35;13.90;67.60
8067;DHT22;4076;48.076;9.118;2023-05-19T16:13:00;13.90;67.50
8067;DHT22;4076;48.076;9.118;2023-05-19T16:15:26;13.80;68.00
8067;DHT22;4076;48.076;9.118;2023-05-19T16:17:51;13.80;68.10
8067;DHT22;4076;48.076;9.118;2023-05-19T16:20:19;13.70;67.90